createdAt,value
2018-07-01T00:00:21.001Z,0.00
2018-07-01T00:01:27.359Z,0.00
2018-07-01T00:02:33.737Z,0.00
2018-07-01T00:03:40.133Z,0.00
2018-07-01T00:04:46.467Z,0.00
2018-07-01T00:05:52.840Z,0.00
2018-07-01T00:06:59.230Z,0.00
2018-07-01T00:08:05.590Z,0.00
2018-07-01T00:09:11.973Z,0.00
2018-07-01T00:10:18.341Z,0.00
2018-07-01T00:11:24.704Z,0.00
2018-07-01T00:12:31.081Z,0.00
2018-07-01T00:13:37.474Z,0.00
2018-07-01T00:14:43.850Z,0.00
2018-07-01T00:15:50.216Z,0.00
2018-07-01T00:16:56.584Z,0.00
2018-07-01T00:18:02.960Z,0.00
2018-07-01T00:19:09.351Z,0.00
2018-07-01T00:20:15.715Z,0.00
2018-07-01T00:21:22.082Z,0.00
2018-07-01T00:22:28.462Z,0.00
2018-07-01T00:23:34.826Z,0.00
2018-07-01T00:24:41.205Z,0.00
2018-07-01T00:25:47.568Z,0.00
2018-07-01T00:26:53.954Z,0.00
2018-07-01T00:28:00.308Z,0.00
2018-07-01T00:29:06.691Z,0.00
2018-07-01T00:30:13.060Z,0.00
2018-07-01T00:31:19.417Z,0.00
2018-07-01T00:32:25.787Z,0.00
2018-07-01T00:33:32.163Z,0.00
2018-07-01T00:34:38.549Z,0.00
2018-07-01T00:35:44.906Z,0.00
2018-07-01T00:36:51.282Z,0.00
2018-07-01T00:37:57.662Z,0.00
2018-07-01T00:39:04.023Z,0.00
2018-07-01T00:40:10.403Z,0.00
2018-07-01T00:41:16.772Z,0.00
2018-07-01T00:42:23.141Z,0.00
2018-07-01T00:43:29.506Z,0.00
2018-07-01T00:44:35.881Z,0.00
2018-07-01T00:45:42.262Z,0.00
2018-07-01T00:46:48.611Z,0.00
2018-07-01T00:47:54.979Z,0.00
2018-07-01T00:49:01.345Z,0.00
2018-07-01T00:50:07.727Z,0.00
2018-07-01T00:51:14.092Z,0.00
2018-07-01T00:52:20.455Z,0.00
2018-07-01T00:53:26.831Z,0.00
2018-07-01T00:54:33.197Z,0.00
2018-07-01T00:55:39.589Z,0.00
2018-07-01T00:56:45.945Z,0.00
2018-07-01T00:57:52.319Z,0.00
2018-07-01T00:58:58.684Z,0.00
2018-07-01T01:00:05.065Z,0.00
2018-07-01T01:01:11.433Z,0.00
2018-07-01T01:02:17.796Z,0.00
2018-07-01T01:03:24.166Z,0.00
2018-07-01T01:04:30.540Z,0.00
2018-07-01T01:05:36.916Z,0.00
2018-07-01T01:06:43.276Z,0.00
2018-07-01T01:07:49.651Z,0.00
2018-07-01T01:08:56.019Z,0.00
2018-07-01T01:10:02.383Z,0.00
2018-07-01T01:11:08.763Z,0.00
2018-07-01T01:12:15.114Z,0.00
2018-07-01T01:13:21.481Z,0.00
2018-07-01T01:14:27.850Z,0.00
2018-07-01T01:15:34.230Z,0.00
2018-07-01T01:16:40.588Z,0.00
2018-07-01T01:17:46.951Z,0.00
2018-07-01T01:18:53.314Z,0.00
2018-07-01T01:19:59.670Z,0.00
2018-07-01T01:21:06.048Z,0.00
2018-07-01T01:22:12.402Z,0.00
2018-07-01T01:23:18.770Z,0.00
2018-07-01T01:24:25.132Z,0.00
2018-07-01T01:25:31.477Z,0.00
2018-07-01T01:26:37.850Z,0.00
2018-07-01T01:27:44.211Z,0.00
2018-07-01T01:28:50.568Z,0.00
2018-07-01T01:29:56.920Z,0.00
2018-07-01T01:31:03.287Z,0.00
2018-07-01T01:32:09.652Z,0.00
2018-07-01T01:33:15.999Z,0.00
2018-07-01T01:34:22.356Z,0.00
2018-07-01T01:35:28.711Z,0.00
2018-07-01T01:36:35.078Z,0.00
2018-07-01T01:37:41.425Z,0.00
2018-07-01T01:38:47.788Z,0.00
2018-07-01T01:39:54.137Z,0.00
2018-07-01T01:41:00.493Z,0.00
2018-07-01T01:42:06.849Z,0.00
2018-07-01T01:43:13.192Z,0.00
2018-07-01T01:44:19.544Z,0.00
2018-07-01T01:45:25.909Z,0.00
2018-07-01T01:46:32.254Z,0.00
2018-07-01T01:47:38.616Z,0.00
2018-07-01T01:48:44.960Z,0.00
2018-07-01T01:49:51.320Z,0.00
2018-07-01T01:50:57.668Z,0.00
2018-07-01T01:52:04.036Z,0.00
2018-07-01T01:53:10.374Z,0.00
2018-07-01T01:54:16.734Z,0.00
2018-07-01T01:55:23.093Z,0.00
2018-07-01T01:56:29.453Z,0.00
2018-07-01T01:57:35.799Z,0.00
2018-07-01T01:58:42.135Z,0.00
2018-07-01T01:59:48.491Z,0.00
2018-07-01T02:00:54.850Z,0.00
2018-07-01T02:02:01.197Z,0.00
2018-07-01T02:03:07.557Z,0.00
2018-07-01T02:04:13.889Z,0.00
2018-07-01T02:05:20.242Z,0.00
2018-07-01T02:06:26.593Z,0.00
2018-07-01T02:07:32.939Z,0.00
2018-07-01T02:08:39.273Z,0.00
2018-07-01T02:09:45.615Z,0.00
2018-07-01T02:10:51.961Z,0.00
2018-07-01T02:11:58.317Z,0.00
2018-07-01T02:13:04.663Z,0.00
2018-07-01T02:14:11.004Z,0.00
2018-07-01T02:15:17.344Z,0.00
2018-07-01T02:16:23.701Z,0.00
2018-07-01T02:17:30.057Z,0.00
2018-07-01T02:18:36.398Z,0.00
2018-07-01T02:19:42.738Z,0.00
2018-07-01T02:20:49.086Z,0.00
2018-07-01T02:21:55.432Z,0.00
2018-07-01T02:23:01.788Z,0.00
2018-07-01T02:24:08.133Z,0.00
2018-07-01T02:25:14.471Z,0.00
2018-07-01T02:26:20.898Z,0.00
2018-07-01T02:27:27.159Z,0.00
2018-07-01T02:28:33.516Z,0.00
2018-07-01T02:29:39.850Z,0.00
2018-07-01T02:30:46.193Z,0.00
2018-07-01T02:31:52.525Z,0.00
2018-07-01T02:32:58.881Z,0.00
2018-07-01T02:34:06.220Z,0.00
2018-07-01T02:35:11.559Z,0.00
2018-07-01T02:36:17.894Z,0.00
2018-07-01T02:37:24.215Z,0.00
2018-07-01T02:38:30.575Z,0.00
2018-07-01T02:39:36.885Z,0.00
2018-07-01T02:40:43.229Z,0.00
2018-07-01T02:41:49.556Z,0.00
2018-07-01T02:42:55.888Z,0.00
2018-07-01T02:44:02.233Z,0.00
2018-07-01T02:45:08.552Z,0.00
2018-07-01T02:46:14.889Z,0.00
2018-07-01T02:47:21.214Z,0.00
2018-07-01T02:48:27.556Z,0.00
2018-07-01T02:49:33.888Z,0.00
2018-07-01T02:50:40.199Z,0.00
2018-07-01T02:51:46.528Z,0.00
2018-07-01T02:52:52.862Z,0.00
2018-07-01T02:53:59.197Z,0.00
2018-07-01T02:55:05.520Z,0.00
2018-07-01T02:56:11.841Z,0.00
2018-07-01T02:57:18.167Z,0.00
2018-07-01T02:58:24.697Z,0.00
2018-07-01T02:59:30.823Z,0.00
2018-07-01T03:00:37.160Z,0.00
2018-07-01T03:01:43.476Z,0.00
2018-07-01T03:02:49.892Z,0.00
2018-07-01T03:03:56.131Z,0.00
2018-07-01T03:05:02.456Z,0.00
2018-07-01T03:06:08.773Z,0.00
2018-07-01T03:07:15.093Z,0.00
2018-07-01T03:08:21.413Z,0.00
2018-07-01T03:09:27.745Z,5.63
2018-07-01T03:10:34.056Z,5.63
2018-07-01T03:11:40.390Z,5.63
2018-07-01T03:12:46.704Z,5.63
2018-07-01T03:13:53.028Z,5.63
2018-07-01T03:14:59.344Z,5.63
2018-07-01T03:16:05.669Z,5.63
2018-07-01T03:17:11.989Z,5.63
2018-07-01T03:18:18.307Z,11.25
2018-07-01T03:19:24.641Z,11.25
2018-07-01T03:20:30.956Z,11.25
2018-07-01T03:21:37.271Z,11.25
2018-07-01T03:22:43.585Z,11.25
2018-07-01T03:23:49.917Z,11.25
2018-07-01T03:24:56.242Z,16.88
2018-07-01T03:26:02.544Z,16.88
2018-07-01T03:27:08.862Z,16.88
2018-07-01T03:28:15.194Z,16.88
2018-07-01T03:29:21.500Z,16.88
2018-07-01T03:30:28.826Z,22.50
2018-07-01T03:31:34.142Z,22.50
2018-07-01T03:32:40.465Z,22.50
2018-07-01T03:33:46.777Z,22.50
2018-07-01T03:34:53.099Z,28.13
2018-07-01T03:35:59.414Z,28.13
2018-07-01T03:37:05.737Z,28.13
2018-07-01T03:38:12.039Z,28.13
2018-07-01T03:39:18.359Z,28.13
2018-07-01T03:40:24.661Z,33.75
2018-07-01T03:41:31.975Z,33.75
2018-07-01T03:42:37.290Z,33.75
2018-07-01T03:43:43.610Z,33.75
2018-07-01T03:44:49.922Z,39.38
2018-07-01T03:45:56.222Z,39.38
2018-07-01T03:47:02.535Z,39.38
2018-07-01T03:48:08.846Z,39.38
2018-07-01T03:49:16.175Z,45.00
2018-07-01T03:50:21.476Z,45.00
2018-07-01T03:51:27.918Z,45.00
2018-07-01T03:52:34.112Z,45.00
2018-07-01T03:53:40.413Z,45.00
2018-07-01T03:54:46.739Z,50.63
2018-07-01T03:55:53.042Z,50.63
2018-07-01T03:56:59.365Z,50.63
2018-07-01T03:58:05.677Z,50.63
2018-07-01T03:59:11.984Z,56.25
2018-07-01T04:00:18.307Z,56.25
2018-07-01T04:01:24.613Z,56.25
2018-07-01T04:02:30.945Z,56.25
2018-07-01T04:03:37.256Z,56.25
2018-07-01T04:04:43.590Z,61.88
2018-07-01T04:05:49.889Z,61.88
2018-07-01T04:06:56.201Z,61.88
2018-07-01T04:08:02.525Z,61.88
2018-07-01T04:09:08.848Z,61.88
2018-07-01T04:10:15.176Z,67.50
2018-07-01T04:11:21.484Z,67.50
2018-07-01T04:12:27.805Z,67.50
2018-07-01T04:13:34.131Z,67.50
2018-07-01T04:14:40.457Z,67.50
2018-07-01T04:15:46.789Z,73.13
2018-07-01T04:16:53.096Z,73.13
2018-07-01T04:17:59.420Z,73.13
2018-07-01T04:19:05.761Z,73.13
2018-07-01T04:20:12.083Z,73.13
2018-07-01T04:21:18.395Z,78.75
2018-07-01T04:22:24.723Z,78.75
2018-07-01T04:23:31.065Z,78.75
2018-07-01T04:24:37.375Z,78.75
2018-07-01T04:25:43.719Z,78.75
2018-07-01T04:26:50.037Z,78.75
2018-07-01T04:27:56.368Z,84.38
2018-07-01T04:29:02.712Z,84.38
2018-07-01T04:30:09.051Z,84.38
2018-07-01T04:31:15.418Z,84.38
2018-07-01T04:32:21.699Z,84.38
2018-07-01T04:33:28.045Z,84.38
2018-07-01T04:34:34.379Z,84.38
2018-07-01T04:35:40.715Z,90.00
2018-07-01T04:36:47.044Z,90.00
2018-07-01T04:37:53.387Z,90.00
2018-07-01T04:38:59.723Z,90.00
2018-07-01T04:40:06.070Z,90.00
2018-07-01T04:41:12.416Z,90.00
2018-07-01T04:42:18.748Z,90.00
2018-07-01T04:43:25.089Z,90.00
2018-07-01T04:44:31.444Z,95.63
2018-07-01T04:45:37.890Z,95.63
2018-07-01T04:46:45.129Z,95.63
2018-07-01T04:47:50.751Z,95.63
2018-07-01T04:48:56.831Z,95.63
2018-07-01T04:50:03.189Z,95.63
2018-07-01T04:51:09.545Z,95.63
2018-07-01T04:52:15.901Z,95.63
2018-07-01T04:53:22.257Z,101.25
2018-07-01T04:54:28.617Z,101.25
2018-07-01T04:55:34.984Z,101.25
2018-07-01T04:56:41.338Z,101.25
2018-07-01T04:57:47.694Z,101.25
2018-07-01T04:58:54.072Z,101.25
2018-07-01T05:00:00.437Z,101.25
2018-07-01T05:01:06.808Z,101.25
2018-07-01T05:02:13.244Z,101.25
2018-07-01T05:03:19.551Z,101.25
2018-07-01T05:04:25.914Z,106.88
2018-07-01T05:05:32.278Z,106.88
2018-07-01T05:06:38.667Z,106.88
2018-07-01T05:07:45.024Z,106.88
2018-07-01T05:08:51.400Z,106.88
2018-07-01T05:09:57.773Z,106.88
2018-07-01T05:11:04.160Z,106.88
2018-07-01T05:12:10.540Z,106.88
2018-07-01T05:13:16.913Z,106.88
2018-07-01T05:14:23.294Z,106.88
2018-07-01T05:15:29.674Z,112.50
2018-07-01T05:16:36.071Z,112.50
2018-07-01T05:17:42.451Z,112.50
2018-07-01T05:18:48.823Z,112.50
2018-07-01T05:19:55.215Z,112.50
2018-07-01T05:21:01.610Z,112.50
2018-07-01T05:22:07.985Z,112.50
2018-07-01T05:23:14.371Z,112.50
2018-07-01T05:24:20.772Z,112.50
2018-07-01T05:25:27.158Z,112.50
2018-07-01T05:26:33.556Z,112.50
2018-07-01T05:27:40.009Z,112.50
2018-07-01T05:28:46.342Z,118.13
2018-07-01T05:29:52.737Z,118.13
2018-07-01T05:30:59.128Z,118.13
2018-07-01T05:32:05.540Z,118.13
2018-07-01T05:33:11.931Z,118.13
2018-07-01T05:34:18.342Z,118.13
2018-07-01T05:35:24.748Z,118.13
2018-07-01T05:36:31.156Z,118.13
2018-07-01T05:37:37.577Z,118.13
2018-07-01T05:38:43.968Z,118.13
2018-07-01T05:39:50.369Z,118.13
2018-07-01T05:40:56.788Z,118.13
2018-07-01T05:42:03.201Z,118.13
2018-07-01T05:43:09.611Z,118.13
2018-07-01T05:44:16.019Z,123.75
2018-07-01T05:45:23.440Z,123.75
2018-07-01T05:46:28.849Z,123.75
2018-07-01T05:47:35.302Z,123.75
2018-07-01T05:48:41.690Z,123.75
2018-07-01T05:49:48.100Z,123.75
2018-07-01T05:50:54.529Z,123.75
2018-07-01T05:52:00.933Z,123.75
2018-07-01T05:53:07.364Z,123.75
2018-07-01T05:54:13.771Z,123.75
2018-07-01T05:55:20.200Z,123.75
2018-07-01T05:56:26.613Z,123.75
2018-07-01T05:57:33.056Z,123.75
2018-07-01T05:58:39.465Z,123.75
2018-07-01T05:59:45.896Z,129.38
2018-07-01T06:00:52.317Z,129.38
2018-07-01T06:01:58.744Z,129.38
2018-07-01T06:03:05.189Z,129.38
2018-07-01T06:04:11.621Z,129.38
2018-07-01T06:05:18.046Z,129.38
2018-07-01T06:06:24.466Z,129.38
2018-07-01T06:07:30.912Z,129.38
2018-07-01T06:08:37.344Z,129.38
2018-07-01T06:09:43.777Z,129.38
2018-07-01T06:10:50.203Z,129.38
2018-07-01T06:11:56.682Z,129.38
2018-07-01T06:13:03.088Z,129.38
2018-07-01T06:14:09.589Z,129.38
2018-07-01T06:15:15.981Z,129.38
2018-07-01T06:16:22.415Z,135.00
2018-07-01T06:17:28.853Z,135.00
2018-07-01T06:18:35.285Z,135.00
2018-07-01T06:19:41.746Z,135.00
2018-07-01T06:20:48.191Z,135.00
2018-07-01T06:21:54.643Z,135.00
2018-07-01T06:23:01.101Z,135.00
2018-07-01T06:24:07.548Z,135.00
2018-07-01T06:25:14.001Z,135.00
2018-07-01T06:26:20.462Z,135.00
2018-07-01T06:27:26.921Z,135.00
2018-07-01T06:28:33.384Z,140.63
2018-07-01T06:29:39.855Z,140.63
2018-07-01T06:30:46.309Z,140.63
2018-07-01T06:31:52.780Z,140.63
2018-07-01T06:32:59.246Z,140.63
2018-07-01T06:34:05.718Z,140.63
2018-07-01T06:35:12.181Z,140.63
2018-07-01T06:36:18.660Z,140.63
2018-07-01T06:37:25.138Z,140.63
2018-07-01T06:38:31.614Z,140.63
2018-07-01T06:39:38.105Z,140.63
2018-07-01T06:40:44.577Z,146.25
2018-07-01T06:41:51.100Z,146.25
2018-07-01T06:42:57.546Z,146.25
2018-07-01T06:44:04.042Z,146.25
2018-07-01T06:45:10.532Z,146.25
2018-07-01T06:46:17.030Z,146.25
2018-07-01T06:47:23.520Z,151.88
2018-07-01T06:48:30.034Z,151.88
2018-07-01T06:49:36.529Z,151.88
2018-07-01T06:50:43.028Z,151.88
2018-07-01T06:51:50.529Z,151.88
2018-07-01T06:52:56.051Z,151.88
2018-07-01T06:54:02.557Z,151.88
2018-07-01T06:55:09.069Z,151.88
2018-07-01T06:56:15.581Z,151.88
2018-07-01T06:57:22.087Z,151.88
2018-07-01T06:58:28.639Z,151.88
2018-07-01T06:59:35.131Z,157.50
2018-07-01T07:00:41.638Z,157.50
2018-07-01T07:01:48.166Z,163.13
2018-07-01T07:02:54.675Z,174.38
2018-07-01T07:04:01.212Z,180.00
2018-07-01T07:05:07.726Z,180.00
2018-07-01T07:06:14.248Z,174.38
2018-07-01T07:07:20.769Z,174.38
2018-07-01T07:08:27.290Z,174.38
2018-07-01T07:09:33.907Z,174.38
2018-07-01T07:10:40.343Z,180.00
2018-07-01T07:11:46.863Z,180.00
2018-07-01T07:12:53.391Z,180.00
2018-07-01T07:13:59.931Z,180.00
2018-07-01T07:15:06.470Z,180.00
2018-07-01T07:16:13.006Z,174.38
2018-07-01T07:17:19.530Z,174.38
2018-07-01T07:18:26.054Z,174.38
2018-07-01T07:19:32.594Z,168.75
2018-07-01T07:20:39.123Z,168.75
2018-07-01T07:21:45.649Z,168.75
2018-07-01T07:22:52.190Z,168.75
2018-07-01T07:23:58.705Z,174.38
2018-07-01T07:25:05.252Z,180.00
2018-07-01T07:26:11.772Z,191.25
2018-07-01T07:27:18.304Z,202.50
2018-07-01T07:28:24.838Z,202.50
2018-07-01T07:29:31.379Z,196.88
2018-07-01T07:30:37.911Z,196.88
2018-07-01T07:31:44.435Z,196.88
2018-07-01T07:32:50.983Z,196.88
2018-07-01T07:33:58.509Z,196.88
2018-07-01T07:35:04.054Z,196.88
2018-07-01T07:36:10.597Z,196.88
2018-07-01T07:37:17.123Z,196.88
2018-07-01T07:38:23.666Z,196.88
2018-07-01T07:39:30.206Z,196.88
2018-07-01T07:40:36.760Z,202.50
2018-07-01T07:41:43.306Z,196.88
2018-07-01T07:42:49.834Z,202.50
2018-07-01T07:43:56.382Z,202.50
2018-07-01T07:45:03.035Z,202.50
2018-07-01T07:46:09.495Z,202.50
2018-07-01T07:47:16.046Z,202.50
2018-07-01T07:48:22.596Z,196.88
2018-07-01T07:49:29.153Z,196.88
2018-07-01T07:50:35.705Z,196.88
2018-07-01T07:51:42.260Z,202.50
2018-07-01T07:52:48.816Z,196.88
2018-07-01T07:53:55.380Z,196.88
2018-07-01T07:55:01.940Z,196.88
2018-07-01T07:56:08.504Z,196.88
2018-07-01T07:57:15.058Z,196.88
2018-07-01T07:58:21.642Z,196.88
2018-07-01T07:59:28.178Z,196.88
2018-07-01T08:00:34.744Z,196.88
2018-07-01T08:01:41.311Z,196.88
2018-07-01T08:02:47.881Z,196.88
2018-07-01T08:03:54.441Z,202.50
2018-07-01T08:05:01.025Z,202.50
2018-07-01T08:06:07.592Z,202.50
2018-07-01T08:07:14.169Z,202.50
2018-07-01T08:08:20.744Z,202.50
2018-07-01T08:09:27.320Z,202.50
2018-07-01T08:10:33.884Z,202.50
2018-07-01T08:11:40.473Z,202.50
2018-07-01T08:12:47.058Z,202.50
2018-07-01T08:13:53.627Z,208.13
2018-07-01T08:15:00.296Z,208.13
2018-07-01T08:16:06.799Z,208.13
2018-07-01T08:17:13.375Z,202.50
2018-07-01T08:18:19.957Z,196.88
2018-07-01T08:19:26.538Z,202.50
2018-07-01T08:20:33.139Z,202.50
2018-07-01T08:21:39.729Z,202.50
2018-07-01T08:22:46.303Z,202.50
2018-07-01T08:23:52.891Z,196.88
2018-07-01T08:24:59.483Z,202.50
2018-07-01T08:26:06.077Z,202.50
2018-07-01T08:27:12.649Z,202.50
2018-07-01T08:28:19.248Z,208.13
2018-07-01T08:29:25.835Z,208.13
2018-07-01T08:30:32.435Z,202.50
2018-07-01T08:31:39.034Z,202.50
2018-07-01T08:32:45.624Z,202.50
2018-07-01T08:33:52.219Z,202.50
2018-07-01T08:34:58.811Z,208.13
2018-07-01T08:36:05.414Z,208.13
2018-07-01T08:37:12.014Z,202.50
2018-07-01T08:38:18.601Z,202.50
2018-07-01T08:39:25.234Z,202.50
2018-07-01T08:40:31.889Z,208.13
2018-07-01T08:41:38.417Z,208.13
2018-07-01T08:42:45.013Z,202.50
2018-07-01T08:43:51.618Z,196.88
2018-07-01T08:44:58.215Z,202.50
2018-07-01T08:46:04.814Z,196.88
2018-07-01T08:47:11.424Z,202.50
2018-07-01T08:48:18.025Z,202.50
2018-07-01T08:49:24.620Z,202.50
2018-07-01T08:50:31.224Z,202.50
2018-07-01T08:51:37.907Z,202.50
2018-07-01T08:52:44.500Z,202.50
2018-07-01T08:53:51.047Z,202.50
2018-07-01T08:54:57.667Z,208.13
2018-07-01T08:56:04.271Z,208.13
2018-07-01T08:57:10.896Z,213.75
2018-07-01T08:58:17.494Z,208.13
2018-07-01T08:59:24.106Z,208.13
2018-07-01T09:00:30.725Z,208.13
2018-07-01T09:01:37.358Z,213.75
2018-07-01T09:02:43.970Z,213.75
2018-07-01T09:03:50.586Z,213.75
2018-07-01T09:04:57.206Z,213.75
2018-07-01T09:06:03.812Z,213.75
2018-07-01T09:07:10.437Z,219.38
2018-07-01T09:08:17.056Z,219.38
2018-07-01T09:09:23.664Z,219.38
2018-07-01T09:10:30.291Z,219.38
2018-07-01T09:11:36.906Z,225.00
2018-07-01T09:12:43.541Z,236.25
2018-07-01T09:13:50.162Z,225.00
2018-07-01T09:14:56.777Z,225.00
2018-07-01T09:16:03.409Z,219.38
2018-07-01T09:17:10.076Z,213.75
2018-07-01T09:18:16.661Z,208.13
2018-07-01T09:19:23.278Z,196.88
2018-07-01T09:20:29.911Z,191.25
2018-07-01T09:21:36.543Z,185.63
2018-07-01T09:22:43.172Z,185.63
2018-07-01T09:23:49.797Z,191.25
2018-07-01T09:24:56.437Z,196.88
2018-07-01T09:26:03.061Z,202.50
2018-07-01T09:27:09.695Z,202.50
2018-07-01T09:28:16.345Z,196.88
2018-07-01T09:29:22.977Z,196.88
2018-07-01T09:30:29.602Z,196.88
2018-07-01T09:31:36.239Z,191.25
2018-07-01T09:32:42.864Z,191.25
2018-07-01T09:33:49.507Z,196.88
2018-07-01T09:34:56.134Z,196.88
2018-07-01T09:36:02.762Z,196.88
2018-07-01T09:37:09.399Z,185.63
2018-07-01T09:38:16.032Z,174.38
2018-07-01T09:39:22.676Z,174.38
2018-07-01T09:40:29.309Z,168.75
2018-07-01T09:41:35.944Z,168.75
2018-07-01T09:42:42.572Z,168.75
2018-07-01T09:43:49.218Z,168.75
2018-07-01T09:44:55.850Z,168.75
2018-07-01T09:46:02.498Z,168.75
2018-07-01T09:47:09.126Z,168.75
2018-07-01T09:48:15.774Z,168.75
2018-07-01T09:49:22.418Z,168.75
2018-07-01T09:50:29.150Z,168.75
2018-07-01T09:51:35.688Z,168.75
2018-07-01T09:52:42.323Z,168.75
2018-07-01T09:53:48.957Z,168.75
2018-07-01T09:54:55.597Z,168.75
2018-07-01T09:56:02.221Z,168.75
2018-07-01T09:57:08.870Z,168.75
2018-07-01T09:58:15.506Z,168.75
2018-07-01T09:59:22.153Z,168.75
2018-07-01T10:00:28.773Z,168.75
2018-07-01T10:01:36.420Z,168.75
2018-07-01T10:02:42.054Z,168.75
2018-07-01T10:03:48.681Z,168.75
2018-07-01T10:04:55.327Z,168.75
2018-07-01T10:06:01.949Z,168.75
2018-07-01T10:07:08.584Z,168.75
2018-07-01T10:08:15.222Z,168.75
2018-07-01T10:09:21.860Z,168.75
2018-07-01T10:10:28.509Z,168.75
2018-07-01T10:11:35.140Z,168.75
2018-07-01T10:12:41.780Z,168.75
2018-07-01T10:13:48.424Z,168.75
2018-07-01T10:14:55.274Z,168.75
2018-07-01T10:16:01.721Z,168.75
2018-07-01T10:17:08.350Z,168.75
2018-07-01T10:18:14.994Z,168.75
2018-07-01T10:19:21.637Z,168.75
2018-07-01T10:20:28.283Z,168.75
2018-07-01T10:21:34.928Z,168.75
2018-07-01T10:22:41.567Z,168.75
2018-07-01T10:23:48.250Z,168.75
2018-07-01T10:24:54.887Z,168.75
2018-07-01T10:26:01.515Z,168.75
2018-07-01T10:27:09.158Z,168.75
2018-07-01T10:28:14.893Z,168.75
2018-07-01T10:29:21.458Z,168.75
2018-07-01T10:30:28.107Z,168.75
2018-07-01T10:31:34.757Z,168.75
2018-07-01T10:32:41.396Z,168.75
2018-07-01T10:33:48.052Z,168.75
2018-07-01T10:34:54.722Z,168.75
2018-07-01T10:36:01.373Z,168.75
2018-07-01T10:37:08.028Z,168.75
2018-07-01T10:38:15.709Z,168.75
2018-07-01T10:39:21.340Z,168.75
2018-07-01T10:40:28.006Z,168.75
2018-07-01T10:41:34.665Z,168.75
2018-07-01T10:42:41.319Z,168.75
2018-07-01T10:43:47.983Z,168.75
2018-07-01T10:44:54.652Z,168.75
2018-07-01T10:46:01.319Z,168.75
2018-07-01T10:47:07.976Z,174.38
2018-07-01T10:48:14.639Z,180.00
2018-07-01T10:49:21.303Z,174.38
2018-07-01T10:50:27.973Z,174.38
2018-07-01T10:51:34.638Z,174.38
2018-07-01T10:52:41.286Z,174.38
2018-07-01T10:53:47.964Z,174.38
2018-07-01T10:54:54.630Z,174.38
2018-07-01T10:56:01.303Z,174.38
2018-07-01T10:57:07.971Z,174.38
2018-07-01T10:58:14.641Z,174.38
2018-07-01T10:59:21.316Z,174.38
2018-07-01T11:00:27.991Z,174.38
2018-07-01T11:01:34.671Z,174.38
2018-07-01T11:02:41.344Z,180.00
2018-07-01T11:03:48.020Z,185.63
2018-07-01T11:04:54.721Z,191.25
2018-07-01T11:06:01.469Z,191.25
2018-07-01T11:07:08.169Z,196.88
2018-07-01T11:08:14.974Z,202.50
2018-07-01T11:09:21.894Z,208.13
2018-07-01T11:10:28.898Z,208.13
2018-07-01T11:11:35.998Z,213.75
2018-07-01T11:12:43.128Z,225.00
2018-07-01T11:13:50.346Z,236.25
2018-07-01T11:14:57.616Z,489.38
2018-07-01T11:16:04.945Z,2238.75
2018-07-01T11:17:12.339Z,3172.50
2018-07-01T11:18:19.756Z,3206.25
2018-07-01T11:19:27.221Z,3335.63
2018-07-01T11:20:34.741Z,3346.88
2018-07-01T11:21:42.295Z,3369.38
2018-07-01T11:22:49.872Z,3375.00
2018-07-01T11:23:57.482Z,3262.50
2018-07-01T11:25:05.143Z,3223.13
2018-07-01T11:26:12.898Z,3290.63
2018-07-01T11:27:20.595Z,3408.75
2018-07-01T11:28:28.267Z,3330.00
2018-07-01T11:29:36.025Z,3307.50
2018-07-01T11:30:43.804Z,3386.25
2018-07-01T11:31:51.622Z,3391.88
2018-07-01T11:32:59.442Z,3431.25
2018-07-01T11:34:07.303Z,3375.00
2018-07-01T11:35:15.178Z,3346.88
2018-07-01T11:36:23.068Z,3442.50
2018-07-01T11:37:30.964Z,3425.63
2018-07-01T11:38:38.874Z,3352.50
2018-07-01T11:39:46.889Z,3403.13
2018-07-01T11:40:54.755Z,3442.50
2018-07-01T11:42:02.712Z,3375.00
2018-07-01T11:43:10.674Z,3324.38
2018-07-01T11:44:18.660Z,3425.63
2018-07-01T11:45:26.662Z,3414.38
2018-07-01T11:46:34.671Z,3273.75
2018-07-01T11:47:42.872Z,3397.50
2018-07-01T11:48:50.723Z,3673.13
2018-07-01T11:49:58.765Z,3616.88
2018-07-01T11:51:07.808Z,3397.50
2018-07-01T11:52:14.885Z,3521.25
2018-07-01T11:53:22.923Z,3622.50
2018-07-01T11:54:30.995Z,3538.13
2018-07-01T11:55:39.068Z,3583.13
2018-07-01T11:56:47.166Z,3481.88
2018-07-01T11:57:55.229Z,3453.75
2018-07-01T11:59:03.336Z,3538.13
2018-07-01T12:00:11.638Z,3335.63
2018-07-01T12:01:19.548Z,3273.75
2018-07-01T12:02:27.676Z,3408.75
2018-07-01T12:03:35.807Z,3408.75
2018-07-01T12:05:02.955Z,3262.50
2018-07-01T12:05:52.101Z,3234.38
2018-07-01T12:07:00.246Z,3324.38
2018-07-01T12:08:08.379Z,3330.00
2018-07-01T12:09:16.537Z,3240.00
2018-07-01T12:10:24.686Z,3307.50
2018-07-01T12:11:32.912Z,3285.00
2018-07-01T12:12:40.993Z,3279.38
2018-07-01T12:13:49.136Z,3279.38
2018-07-01T12:14:57.306Z,3166.88
2018-07-01T12:16:05.473Z,3178.13
2018-07-01T12:17:13.659Z,3183.75
2018-07-01T12:18:21.855Z,3026.25
2018-07-01T12:19:30.042Z,2902.50
2018-07-01T12:20:38.244Z,2958.75
2018-07-01T12:21:47.443Z,3054.38
2018-07-01T12:22:54.660Z,3088.13
2018-07-01T12:24:02.860Z,3003.75
2018-07-01T12:25:11.067Z,3060.00
2018-07-01T12:26:19.278Z,2998.13
2018-07-01T12:27:27.476Z,2891.25
2018-07-01T12:28:35.697Z,3026.25
2018-07-01T12:29:43.877Z,3116.25
2018-07-01T12:30:52.081Z,2913.75
2018-07-01T12:32:00.285Z,2891.25
2018-07-01T12:33:08.492Z,3071.25
2018-07-01T12:34:16.678Z,3037.50
2018-07-01T12:35:24.865Z,2964.38
2018-07-01T12:36:33.056Z,2930.63
2018-07-01T12:37:41.241Z,2925.00
2018-07-01T12:38:49.421Z,2818.13
2018-07-01T12:39:57.604Z,2840.63
2018-07-01T12:41:05.773Z,2919.38
2018-07-01T12:42:13.977Z,2745.00
2018-07-01T12:43:22.146Z,2688.75
2018-07-01T12:44:30.324Z,2812.50
2018-07-01T12:45:38.503Z,2784.38
2018-07-01T12:46:46.698Z,2756.25
2018-07-01T12:47:54.895Z,2767.50
2018-07-01T12:49:03.085Z,2835.00
2018-07-01T12:50:11.269Z,2795.63
2018-07-01T12:51:19.466Z,2722.50
2018-07-01T12:52:27.650Z,2795.63
2018-07-01T12:53:35.866Z,2868.75
2018-07-01T12:54:44.028Z,2823.75
2018-07-01T12:55:52.201Z,2790.00
2018-07-01T12:57:00.375Z,2857.50
2018-07-01T12:58:08.547Z,2801.25
2018-07-01T12:59:16.794Z,2694.38
2018-07-01T13:00:24.889Z,2773.13
2018-07-01T13:01:33.063Z,2790.00
2018-07-01T13:02:41.225Z,2728.13
2018-07-01T13:03:50.415Z,2655.00
2018-07-01T13:04:57.576Z,2649.38
2018-07-01T13:06:05.731Z,2683.13
2018-07-01T13:07:13.879Z,2581.88
2018-07-01T13:08:22.019Z,2655.00
2018-07-01T13:09:30.171Z,2784.38
2018-07-01T13:10:38.312Z,2722.50
2018-07-01T13:11:46.415Z,2632.50
2018-07-01T13:12:54.543Z,2767.50
2018-07-01T13:14:02.681Z,2705.63
2018-07-01T13:15:10.902Z,2610.00
2018-07-01T13:16:18.921Z,2694.38
2018-07-01T13:17:27.053Z,2688.75
2018-07-01T13:18:35.270Z,2598.75
2018-07-01T13:19:43.296Z,2632.50
2018-07-01T13:20:51.406Z,2756.25
2018-07-01T13:21:59.510Z,2728.13
2018-07-01T13:23:07.626Z,2660.63
2018-07-01T13:24:15.739Z,2716.88
2018-07-01T13:25:23.838Z,2711.25
2018-07-01T13:26:31.929Z,2683.13
2018-07-01T13:27:40.006Z,2790.00
2018-07-01T13:28:48.085Z,2705.63
2018-07-01T13:29:56.166Z,2677.50
2018-07-01T13:31:05.235Z,2711.25
2018-07-01T13:32:12.312Z,2705.63
2018-07-01T13:33:20.374Z,2700.00
2018-07-01T13:34:28.447Z,2761.88
2018-07-01T13:35:36.513Z,2790.00
2018-07-01T13:36:44.557Z,2745.00
2018-07-01T13:37:52.618Z,2745.00
2018-07-01T13:39:00.657Z,2705.63
2018-07-01T13:40:08.696Z,2750.63
2018-07-01T13:41:16.723Z,2728.13
2018-07-01T13:42:24.750Z,2733.75
2018-07-01T13:43:32.769Z,2784.38
2018-07-01T13:44:40.888Z,2649.38
2018-07-01T13:45:48.901Z,2638.13
2018-07-01T13:46:56.887Z,2683.13
2018-07-01T13:48:04.888Z,2705.63
2018-07-01T13:49:12.831Z,2835.00
2018-07-01T13:50:20.892Z,2891.25
2018-07-01T13:51:28.775Z,2761.88
2018-07-01T13:52:36.756Z,2818.13
2018-07-01T13:53:44.737Z,2835.00
2018-07-01T13:54:52.711Z,2739.38
2018-07-01T13:56:00.744Z,2790.00
2018-07-01T13:57:08.694Z,2908.13
2018-07-01T13:58:16.615Z,2840.63
2018-07-01T13:59:24.774Z,2936.25
2018-07-01T14:00:32.613Z,2975.63
2018-07-01T14:01:40.567Z,2992.50
2018-07-01T14:02:48.510Z,3105.00